Time;durP1;ratioP1;P1;durP2;ratioP2;P2;SDS_P1;SDS_P2;PMS_P1;PMS_P2;Temp;Humidity;BMP_temperature;BMP_pressure;BME280_temperature;BME280_humidity;BME280_pressure;Samples;Min_cycle;Max_cycle;Signal;HPM_P1;HPM_P2
2023/04/15 00:00:53;;;;;;;;;;;;;;;6.39;100.00;100772.34;5013243;28;19921;-71
2023/04/15 00:03:18;;;;;;;;;;;;;;;6.45;100.00;100776.47;5013698;28;20401;-72
2023/04/15 00:05:43;;;;;;;;;;;;;;;6.43;100.00;100771.22;5009791;28;19960;-71
2023/04/15 00:08:09;;;;;;;;;;;;;;;6.48;100.00;100773.63;5014333;28;19921;-71
2023/04/15 00:10:34;;;;;;;;;;;;;;;6.57;100.00;100766.84;5010965;28;19930;-71
2023/04/15 00:12:59;;;;;;;;;;;;;;;6.61;100.00;100763.06;5016419;28;19944;-71
2023/04/15 00:15:25;;;;;;;;;;;;;;;6.65;100.00;100761.03;5014365;28;19944;-71
2023/04/15 00:17:50;;;;;;;;;;;;;;;6.69;100.00;100766.06;5008879;28;19922;-71
2023/04/15 00:20:16;;;;;;;;;;;;;;;6.69;100.00;100755.41;5008634;28;19921;-71
2023/04/15 00:22:41;;;;;;;;;;;;;;;6.68;100.00;100763.50;5013843;28;19929;-71
2023/04/15 00:25:07;;;;;;;;;;;;;;;6.70;100.00;100761.59;5016110;28;20007;-71
2023/04/15 00:27:32;;;;;;;;;;;;;;;6.72;100.00;100760.53;5020174;28;20397;-71
2023/04/15 00:29:57;;;;;;;;;;;;;;;6.69;100.00;100763.41;5019204;28;19921;-71
2023/04/15 00:32:22;;;;;;;;;;;;;;;6.68;100.00;100756.34;5015127;28;19928;-72
2023/04/15 00:34:48;;;;;;;;;;;;;;;6.56;100.00;100757.97;5017447;28;20007;-72
2023/04/15 00:37:13;;;;;;;;;;;;;;;6.52;100.00;100763.59;5019435;28;20041;-71
2023/04/15 00:39:39;;;;;;;;;;;;;;;6.52;100.00;100758.28;5019367;28;19921;-71
2023/04/15 00:42:04;;;;;;;;;;;;;;;6.52;100.00;100758.28;5020977;28;19956;-71
2023/04/15 00:44:29;;;;;;;;;;;;;;;6.51;100.00;100761.91;5018232;28;20015;-71
2023/04/15 00:46:55;;;;;;;;;;;;;;;6.51;100.00;100759.22;5021857;28;20457;-71
2023/04/15 00:49:20;;;;;;;;;;;;;;;6.49;100.00;100756.63;5021817;28;19959;-71
2023/04/15 00:51:45;;;;;;;;;;;;;;;6.48;100.00;100759.41;5016787;28;20023;-71
2023/04/15 00:54:11;;;;;;;;;;;;;;;6.39;100.00;100760.84;5015946;28;19932;-71
2023/04/15 00:56:37;;;;;;;;;;;;;;;6.35;100.00;100761.97;5017590;28;20439;-71
2023/04/15 00:59:02;;;;;;;;;;;;;;;6.35;100.00;100764.66;5017319;28;19925;-71
2023/04/15 01:01:28;;;;;;;;;;;;;;;6.33;100.00;100761.22;5018108;28;19924;-71
2023/04/15 01:03:54;;;;;;;;;;;;;;;6.26;100.00;100760.75;5016474;28;19928;-71
2023/04/15 01:06:20;;;;;;;;;;;;;;;6.25;100.00;100759.88;5014790;28;19921;-71
2023/04/15 01:08:45;;;;;;;;;;;;;;;6.25;100.00;100762.53;5016728;28;19931;-71
2023/04/15 01:11:12;;;;;;;;;;;;;;;6.07;100.00;100761.88;5019260;28;20288;-71
2023/04/15 01:13:37;;;;;;;;;;;;;;;6.07;100.00;100769.00;5017405;28;19928;-72
2023/04/15 01:16:02;;;;;;;;;;;;;;;6.02;100.00;100761.28;5018353;28;19921;-71
2023/04/15 01:18:28;;;;;;;;;;;;;;;5.93;100.00;100768.00;5014450;28;19921;-71
2023/04/15 01:20:53;;;;;;;;;;;;;;;5.91;100.00;100767.22;5016247;28;19968;-71
2023/04/15 01:23:18;;;;;;;;;;;;;;;5.91;100.00;100769.88;5016839;28;20389;-72
2023/04/15 01:25:44;;;;;;;;;;;;;;;5.92;100.00;100774.25;5013804;28;20020;-71
2023/04/15 01:28:09;;;;;;;;;;;;;;;5.90;100.00;100765.50;5015054;28;19928;-71
2023/04/15 01:30:35;;;;;;;;;;;;;;;5.85;100.00;100770.25;5013755;28;19921;-71
2023/04/15 01:33:00;;;;;;;;;;;;;;;5.78;100.00;100776.88;5012597;28;19921;-71
2023/04/15 01:35:26;;;;;;;;;;;;;;;5.67;100.00;100780.16;5016232;28;19921;-71
2023/04/15 01:37:51;;;;;;;;;;;;;;;5.57;100.00;100777.19;5015816;28;20438;-71
2023/04/15 01:40:16;;;;;;;;;;;;;;;5.49;100.00;100774.09;5017770;28;19970;-72
2023/04/15 01:42:41;;;;;;;;;;;;;;;5.49;100.00;100777.63;5015666;28;20431;-71
2023/04/15 01:45:07;;;;;;;;;;;;;;;5.52;100.00;100774.78;5017501;28;20363;-72
2023/04/15 01:47:32;;;;;;;;;;;;;;;5.54;100.00;100769.38;5017728;28;19921;-71
2023/04/15 01:49:58;;;;;;;;;;;;;;;5.56;100.00;100775.47;5019004;28;19948;-71
2023/04/15 01:52:23;;;;;;;;;;;;;;;5.59;100.00;100785.94;5015366;28;20169;-71
2023/04/15 01:54:48;;;;;;;;;;;;;;;5.54;100.00;100778.22;5013543;28;20315;-71
2023/04/15 01:57:13;;;;;;;;;;;;;;;5.54;100.00;100780.03;5017283;28;19921;-71
2023/04/15 01:59:38;;;;;;;;;;;;;;;5.50;100.00;100778.47;5014599;28;20011;-72
2023/04/15 02:02:04;;;;;;;;;;;;;;;5.51;100.00;100783.72;4994120;28;20019;-71
2023/04/15 02:04:29;;;;;;;;;;;;;;;5.51;100.00;100777.53;5011055;28;19928;-71
2023/04/15 02:06:54;;;;;;;;;;;;;;;5.46;100.00;100776.94;5012316;28;19921;-71
2023/04/15 02:09:19;;;;;;;;;;;;;;;5.51;100.00;100782.84;4996387;28;19929;-71
2023/04/15 02:11:45;;;;;;;;;;;;;;;5.54;100.00;100780.91;5016527;28;20276;-71
2023/04/15 02:14:10;;;;;;;;;;;;;;;5.54;100.00;100782.69;5000157;28;20406;-71
2023/04/15 02:16:35;;;;;;;;;;;;;;;5.53;100.00;100780.97;5013349;28;20336;-71
2023/04/15 02:19:00;;;;;;;;;;;;;;;5.51;100.00;100780.19;5013996;28;20380;-71
2023/04/15 02:21:26;;;;;;;;;;;;;;;5.45;100.00;100781.41;5014578;28;19927;-71
2023/04/15 02:23:52;;;;;;;;;;;;;;;5.46;100.00;100776.94;5017656;28;19945;-71
2023/04/15 02:26:17;;;;;;;;;;;;;;;5.53;100.00;100778.31;5020972;28;19920;-72
2023/04/15 02:28:43;;;;;;;;;;;;;;;5.52;100.00;100779.25;5014557;28;20415;-72
2023/04/15 02:31:08;;;;;;;;;;;;;;;5.53;100.00;100776.50;5009844;28;19963;-71
2023/04/15 02:33:33;;;;;;;;;;;;;;;5.51;100.00;100781.06;5015501;28;19987;-71
2023/04/15 02:35:59;;;;;;;;;;;;;;;5.48;100.00;100785.69;5013431;28;20034;-71
2023/04/15 02:38:24;;;;;;;;;;;;;;;5.47;100.00;100795.50;5010702;28;19943;-71
2023/04/15 02:40:49;;;;;;;;;;;;;;;5.44;100.00;100792.13;5007238;28;20245;-71
2023/04/15 02:43:16;;;;;;;;;;;;;;;5.39;100.00;100795.94;5009661;28;19932;-71
2023/04/15 02:45:42;;;;;;;;;;;;;;;5.33;100.00;100798.94;5016053;28;19974;-72
2023/04/15 02:48:07;;;;;;;;;;;;;;;5.33;100.00;100798.06;5016984;28;19921;-71
2023/04/15 02:50:32;;;;;;;;;;;;;;;5.32;100.00;100802.56;5013473;28;20375;-71
2023/04/15 02:52:59;;;;;;;;;;;;;;;5.28;100.00;100809.00;5016164;28;20013;-71
2023/04/15 02:55:25;;;;;;;;;;;;;;;5.26;100.00;100810.88;4999395;28;19921;-71
2023/04/15 02:57:50;;;;;;;;;;;;;;;5.30;100.00;100814.25;5014493;28;19932;-71
2023/04/15 03:00:15;;;;;;;;;;;;;;;5.32;100.00;100813.19;5012727;28;20302;-71
2023/04/15 03:02:41;;;;;;;;;;;;;;;5.28;100.00;100813.47;5002869;28;20114;-71
2023/04/15 03:05:10;;;;;;;;;;;;;;;5.15;100.00;100797.31;4999522;28;20321;-71
2023/04/15 03:07:35;;;;;;;;;;;;;;;5.24;100.00;100815.41;5016366;28;19976;-71
2023/04/15 03:10:01;;;;;;;;;;;;;;;5.21;100.00;100818.25;5013707;28;20550;-71
2023/04/15 03:12:26;;;;;;;;;;;;;;;5.19;100.00;100815.69;5017212;28;19920;-71
2023/04/15 03:14:52;;;;;;;;;;;;;;;5.15;100.00;100815.97;5015544;28;20493;-71
2023/04/15 03:17:17;;;;;;;;;;;;;;;5.13;100.00;100816.03;5014308;28;19959;-71
2023/04/15 03:19:42;;;;;;;;;;;;;;;5.09;100.00;100817.13;5015906;28;19957;-71
2023/04/15 03:22:08;;;;;;;;;;;;;;;5.07;100.00;100825.22;5016058;28;19979;-71
2023/04/15 03:24:33;;;;;;;;;;;;;;;5.07;100.00;100827.88;5012305;28;20267;-71
2023/04/15 03:26:58;;;;;;;;;;;;;;;5.03;100.00;100823.66;5017235;28;19921;-71
2023/04/15 03:29:23;;;;;;;;;;;;;;;5.06;100.00;100830.59;5013788;28;19968;-71
2023/04/15 03:31:49;;;;;;;;;;;;;;;5.02;100.00;100829.09;5015559;28;20342;-72
2023/04/15 03:34:14;;;;;;;;;;;;;;;5.05;100.00;100832.41;5022091;28;20405;-71
2023/04/15 03:36:39;;;;;;;;;;;;;;;5.07;100.00;100837.66;5018551;28;20469;-72
2023/04/15 03:39:04;;;;;;;;;;;;;;;5.03;100.00;100836.97;5017617;28;19925;-71
2023/04/15 03:41:29;;;;;;;;;;;;;;;5.04;100.00;100843.13;5018634;28;20462;-71
2023/04/15 03:43:55;;;;;;;;;;;;;;;5.04;100.00;100833.38;5013268;28;20360;-71
2023/04/15 03:46:20;;;;;;;;;;;;;;;5.08;100.00;100834.03;5011416;28;20007;-72
2023/04/15 03:48:46;;;;;;;;;;;;;;;5.12;100.00;100837.41;5025018;28;19927;-71
2023/04/15 03:51:11;;;;;;;;;;;;;;;5.09;100.00;100844.63;4997714;28;19940;-71
2023/04/15 03:53:36;;;;;;;;;;;;;;;5.15;100.00;100850.56;5015186;28;20299;-71
2023/04/15 03:56:02;;;;;;;;;;;;;;;5.17;100.00;100845.97;5016650;28;20468;-72
2023/04/15 03:58:27;;;;;;;;;;;;;;;5.19;100.00;100847.63;5001473;28;20375;-71
2023/04/15 04:00:53;;;;;;;;;;;;;;;5.23;100.00;100856.28;4988876;28;19921;-71
2023/04/15 04:03:18;;;;;;;;;;;;;;;5.27;100.00;100859.66;5009768;28;19932;-72
2023/04/15 04:05:44;;;;;;;;;;;;;;;5.30;100.00;100859.50;5012651;28;19922;-71
2023/04/15 04:08:12;;;;;;;;;;;;;;;5.31;100.00;100862.06;5013297;28;19921;-71
2023/04/15 04:10:37;;;;;;;;;;;;;;;5.32;100.00;100865.56;5013413;28;19949;-71
2023/04/15 04:13:02;;;;;;;;;;;;;;;5.37;100.00;100874.16;5019086;28;19921;-71
2023/04/15 04:15:28;;;;;;;;;;;;;;;5.35;100.00;100873.41;5013632;28;19956;-71
2023/04/15 04:17:53;;;;;;;;;;;;;;;5.32;100.00;100878.88;5020824;28;19984;-72
2023/04/15 04:20:18;;;;;;;;;;;;;;;5.33;100.00;100883.25;5014143;28;20328;-71
2023/04/15 04:22:43;;;;;;;;;;;;;;;5.27;100.00;100884.47;5020669;28;20279;-71
2023/04/15 04:25:09;;;;;;;;;;;;;;;5.34;100.00;100885.88;5018166;28;20443;-71
2023/04/15 04:27:34;;;;;;;;;;;;;;;5.33;100.00;100881.47;5019856;28;20386;-71
2023/04/15 04:30:00;;;;;;;;;;;;;;;5.39;100.00;100893.59;5010808;28;19979;-71
2023/04/15 04:32:25;;;;;;;;;;;;;;;5.36;100.00;100894.63;5033475;28;19925;-71
2023/04/15 04:34:50;;;;;;;;;;;;;;;5.33;100.00;100897.47;5010141;28;19921;-71
2023/04/15 04:37:16;;;;;;;;;;;;;;;5.28;100.00;100904.81;5014334;28;20315;-71
2023/04/15 04:39:41;;;;;;;;;;;;;;;5.26;100.00;100906.72;5001820;28;20613;-71
2023/04/15 04:42:06;;;;;;;;;;;;;;;5.31;100.00;100907.31;5017877;28;20724;-71
2023/04/15 04:44:32;;;;;;;;;;;;;;;5.30;100.00;100910.94;5018272;28;19925;-71
2023/04/15 04:46:57;;;;;;;;;;;;;;;5.34;100.00;100914.28;5011823;28;19921;-71
2023/04/15 04:49:22;;;;;;;;;;;;;;;5.29;100.00;100917.19;5003387;28;19925;-71
2023/04/15 04:51:47;;;;;;;;;;;;;;;5.22;100.00;100921.13;4996877;28;19921;-71
2023/04/15 04:54:12;;;;;;;;;;;;;;;5.18;100.00;100927.56;5011290;28;19921;-71
2023/04/15 04:56:38;;;;;;;;;;;;;;;5.21;100.00;100920.28;5012677;28;20043;-71
2023/04/15 04:59:04;;;;;;;;;;;;;;;5.22;100.00;100926.44;5005861;28;19959;-71
2023/04/15 05:01:29;;;;;;;;;;;;;;;5.20;100.00;100928.34;5014371;28;19929;-72
2023/04/15 05:03:54;;;;;;;;;;;;;;;5.16;100.00;100932.97;5011609;28;19920;-71
2023/04/15 05:06:20;;;;;;;;;;;;;;;5.14;100.00;100926.88;5009748;28;19921;-71
2023/04/15 05:08:45;;;;;;;;;;;;;;;5.17;100.00;100939.13;5011460;28;19921;-71
2023/04/15 05:11:11;;;;;;;;;;;;;;;5.18;100.00;100938.19;4996745;28;20008;-71
2023/04/15 05:13:37;;;;;;;;;;;;;;;5.14;100.00;100942.00;5016592;28;19921;-71
2023/04/15 05:16:03;;;;;;;;;;;;;;;5.14;100.00;100950.81;4996860;28;19932;-71
2023/04/15 05:18:28;;;;;;;;;;;;;;;5.04;100.00;100952.25;4999056;28;19928;-71
2023/04/15 05:20:54;;;;;;;;;;;;;;;4.99;100.00;100959.63;5020109;28;20266;-71
2023/04/15 05:23:19;;;;;;;;;;;;;;;5.00;100.00;100959.53;5025111;28;19928;-72
2023/04/15 05:25:44;;;;;;;;;;;;;;;5.00;100.00;100970.19;5006362;28;19925;-72
2023/04/15 05:28:10;;;;;;;;;;;;;;;5.02;100.00;100970.97;5014999;28;20185;-72
2023/04/15 05:30:35;;;;;;;;;;;;;;;5.04;100.00;100971.75;5015984;28;19921;-71
2023/04/15 05:33:00;;;;;;;;;;;;;;;5.08;100.00;100975.97;5002123;28;20015;-71
2023/04/15 05:35:26;;;;;;;;;;;;;;;5.13;100.00;100983.72;5002134;28;20008;-71
2023/04/15 05:37:51;;;;;;;;;;;;;;;5.25;100.00;100992.84;5013747;28;19921;-71
2023/04/15 05:40:16;;;;;;;;;;;;;;;5.34;100.00;100989.69;5009953;28;20378;-71
2023/04/15 05:42:41;;;;;;;;;;;;;;;5.39;100.00;100990.31;5016995;28;19929;-72
2023/04/15 05:45:08;;;;;;;;;;;;;;;5.51;100.00;100995.91;5001118;28;19921;-71
2023/04/15 05:47:34;;;;;;;;;;;;;;;5.62;100.00;100998.88;4995849;28;19940;-71
2023/04/15 05:49:59;;;;;;;;;;;;;;;5.72;100.00;101004.56;4995102;28;20582;-71
2023/04/15 05:52:25;;;;;;;;;;;;;;;5.81;100.00;101012.03;4997809;28;19917;-71
2023/04/15 05:54:50;;;;;;;;;;;;;;;5.94;100.00;101019.34;5007192;28;19921;-72
2023/04/15 05:57:15;;;;;;;;;;;;;;;6.02;100.00;101017.16;4994498;28;19963;-71
2023/04/15 05:59:41;;;;;;;;;;;;;;;6.10;100.00;101024.72;4996799;28;19967;-71
2023/04/15 06:02:07;;;;;;;;;;;;;;;6.21;100.00;101021.44;5012071;28;20019;-71
2023/04/15 06:04:32;;;;;;;;;;;;;;;6.25;100.00;101023.84;5014730;28;19936;-71
2023/04/15 06:06:57;;;;;;;;;;;;;;;6.29;100.00;101028.06;5019463;28;20035;-71
2023/04/15 06:09:22;;;;;;;;;;;;;;;6.35;100.00;101032.19;5021603;28;19960;-71
2023/04/15 06:11:48;;;;;;;;;;;;;;;6.46;100.00;101028.91;5001043;28;20008;-71
2023/04/15 06:14:13;;;;;;;;;;;;;;;6.56;100.00;101042.59;5018472;28;19920;-71
2023/04/15 06:16:38;;;;;;;;;;;;;;;6.65;100.00;101047.38;5018634;28;20015;-71
2023/04/15 06:19:03;;;;;;;;;;;;;;;6.69;100.00;101045.41;4996499;28;20367;-71
2023/04/15 06:21:28;;;;;;;;;;;;;;;6.74;100.00;101057.50;5001128;28;19980;-71
2023/04/15 06:23:55;;;;;;;;;;;;;;;6.74;100.00;101062.84;5000144;28;20438;-71
2023/04/15 06:26:20;;;;;;;;;;;;;;;6.81;100.00;101074.03;4993431;28;19928;-71
2023/04/15 06:28:46;;;;;;;;;;;;;;;6.87;100.00;101064.81;5010886;28;19952;-71
2023/04/15 06:31:11;;;;;;;;;;;;;;;6.97;100.00;101078.47;5008921;28;20179;-71
2023/04/15 06:33:36;;;;;;;;;;;;;;;7.01;100.00;101080.88;5009989;28;19920;-71
2023/04/15 06:36:01;;;;;;;;;;;;;;;7.07;100.00;101082.31;5009966;28;19949;-71
2023/04/15 06:38:27;;;;;;;;;;;;;;;7.05;100.00;101084.19;4997571;28;19928;-71
2023/04/15 06:40:52;;;;;;;;;;;;;;;7.15;100.00;101089.88;4994988;28;19928;-71
2023/04/15 06:43:17;;;;;;;;;;;;;;;7.24;100.00;101091.16;5001560;28;20392;-71
2023/04/15 06:45:42;;;;;;;;;;;;;;;7.38;100.00;101096.50;5021547;28;20039;-71
2023/04/15 06:48:09;;;;;;;;;;;;;;;7.47;100.00;101093.28;5019859;28;20277;-71
2023/04/15 06:50:35;;;;;;;;;;;;;;;7.59;100.00;101101.50;5007046;28;20296;-71
2023/04/15 06:53:00;;;;;;;;;;;;;;;7.74;100.00;101097.00;5002327;28;20447;-71
2023/04/15 06:55:26;;;;;;;;;;;;;;;8.01;100.00;101105.16;5020928;28;20486;-71
2023/04/15 06:57:51;;;;;;;;;;;;;;;8.06;100.00;101075.44;5022427;28;20012;-71
2023/04/15 07:00:16;;;;;;;;;;;;;;;8.53;100.00;101108.16;5014109;28;19921;-71
2023/04/15 07:02:42;;;;;;;;;;;;;;;8.77;100.00;101104.81;5013683;28;19929;-71
2023/04/15 07:05:07;;;;;;;;;;;;;;;9.02;100.00;101121.94;5008620;28;19965;-71
2023/04/15 07:07:32;;;;;;;;;;;;;;;9.00;100.00;101122.06;5009214;28;20327;-71
2023/04/15 07:09:57;;;;;;;;;;;;;;;9.07;100.00;101117.13;5006641;28;19975;-71
2023/04/15 07:12:23;;;;;;;;;;;;;;;9.27;100.00;101127.34;5008464;28;19927;-71
2023/04/15 07:14:48;;;;;;;;;;;;;;;9.47;100.00;101135.00;5010178;28;19925;-72
2023/04/15 07:17:13;;;;;;;;;;;;;;;9.71;100.00;101136.00;5009020;28;19921;-71
2023/04/15 07:19:39;;;;;;;;;;;;;;;9.89;100.00;101139.22;5010444;28;20426;-72
2023/04/15 07:22:04;;;;;;;;;;;;;;;10.16;100.00;101142.72;5008207;28;19973;-71
2023/04/15 07:24:29;;;;;;;;;;;;;;;10.33;100.00;101138.84;5010006;28;20021;-71
2023/04/15 07:26:57;;;;;;;;;;;;;;;10.43;100.00;101145.28;5009937;28;20023;-71
2023/04/15 07:29:22;;;;;;;;;;;;;;;10.52;100.00;101151.81;5008382;28;20071;-71
2023/04/15 07:31:48;;;;;;;;;;;;;;;10.44;100.00;101154.19;5007338;28;20398;-71
2023/04/15 07:34:13;;;;;;;;;;;;;;;10.30;100.00;101157.84;5011065;28;20488;-71
2023/04/15 07:36:39;;;;;;;;;;;;;;;10.08;100.00;101161.19;5008907;28;20326;-72
2023/04/15 07:39:04;;;;;;;;;;;;;;;10.11;100.00;101167.22;5008358;28;19932;-71
2023/04/15 07:41:30;;;;;;;;;;;;;;;10.24;100.00;101167.19;5010326;28;20083;-72
2023/04/15 07:43:55;;;;;;;;;;;;;;;10.26;100.00;101172.44;5005881;28;19925;-72
2023/04/15 07:46:22;;;;;;;;;;;;;;;10.08;100.00;101167.41;4987242;28;20247;-72
2023/04/15 07:48:48;;;;;;;;;;;;;;;10.20;100.00;101181.78;5005336;28;19926;-72
2023/04/15 07:51:13;;;;;;;;;;;;;;;10.12;100.00;101178.78;5010069;28;19998;-71
2023/04/15 07:53:38;;;;;;;;;;;;;;;10.14;100.00;101185.78;5007114;28;19933;-73
2023/04/15 07:56:03;;;;;;;;;;;;;;;10.28;100.00;101184.78;5005536;28;20015;-72
2023/04/15 07:58:29;;;;;;;;;;;;;;;10.46;100.00;101187.16;5006784;28;19987;-72
2023/04/15 08:00:54;;;;;;;;;;;;;;;10.48;100.00;101194.13;5005442;28;20370;-72
2023/04/15 08:03:20;;;;;;;;;;;;;;;10.43;100.00;101201.66;5001856;28;19932;-72
2023/04/15 08:05:46;;;;;;;;;;;;;;;10.38;100.00;101202.91;5006464;28;19921;-72
2023/04/15 08:08:11;;;;;;;;;;;;;;;10.33;100.00;101205.94;5006358;28;19965;-72
2023/04/15 08:10:36;;;;;;;;;;;;;;;10.02;100.00;101208.09;5004308;28;20356;-72
2023/04/15 08:13:02;;;;;;;;;;;;;;;10.12;100.00;101214.53;5006614;28;20100;-73
2023/04/15 08:15:27;;;;;;;;;;;;;;;10.03;100.00;101207.13;5012528;28;19925;-73
2023/04/15 08:17:52;;;;;;;;;;;;;;;10.14;100.00;101198.31;5006579;28;19925;-73
2023/04/15 08:20:18;;;;;;;;;;;;;;;10.10;100.00;101210.22;5005716;28;19921;-72
2023/04/15 08:22:43;;;;;;;;;;;;;;;10.23;100.00;101208.41;5006617;28;19968;-72
2023/04/15 08:25:09;;;;;;;;;;;;;;;10.33;100.00;101213.97;5003959;28;20020;-74
2023/04/15 08:27:34;;;;;;;;;;;;;;;10.17;100.00;101217.75;5007345;28;19932;-72
2023/04/15 08:29:59;;;;;;;;;;;;;;;10.52;100.00;101218.06;5006306;28;20324;-72
2023/04/15 08:32:26;;;;;;;;;;;;;;;10.66;100.00;101220.63;5007842;28;19973;-72
2023/04/15 08:34:52;;;;;;;;;;;;;;;11.05;100.00;101221.34;5012083;28;19959;-72
2023/04/15 08:37:17;;;;;;;;;;;;;;;11.23;100.00;101227.19;5009261;28;20460;-72
2023/04/15 08:39:44;;;;;;;;;;;;;;;11.34;100.00;101233.63;5007810;28;20049;-71
2023/04/15 08:42:10;;;;;;;;;;;;;;;11.46;100.00;101232.69;5005074;28;19921;-71
2023/04/15 08:44:35;;;;;;;;;;;;;;;11.52;100.00;101234.06;5004810;28;19925;-71
2023/04/15 08:47:01;;;;;;;;;;;;;;;11.61;97.83;101235.19;5015323;28;19921;-71
2023/04/15 08:49:27;;;;;;;;;;;;;;;11.85;100.00;101243.19;5006669;28;19932;-72
2023/04/15 08:51:52;;;;;;;;;;;;;;;12.09;97.86;101250.38;5003097;28;20386;-72
2023/04/15 08:54:17;;;;;;;;;;;;;;;12.06;91.15;101251.50;4995862;28;20004;-72
2023/04/15 08:56:43;;;;;;;;;;;;;;;12.00;91.33;101255.53;5010905;28;19963;-71
2023/04/15 08:59:08;;;;;;;;;;;;;;;12.36;92.68;101251.88;5007315;28;20019;-72
2023/04/15 09:01:33;;;;;;;;;;;;;;;12.54;97.07;101260.34;5012190;28;19925;-71
2023/04/15 09:03:59;;;;;;;;;;;;;;;12.43;85.34;101259.38;5011634;28;19925;-72
2023/04/15 09:06:24;;;;;;;;;;;;;;;12.55;87.01;101262.94;5013052;28;20226;-72
2023/04/15 09:08:50;;;;;;;;;;;;;;;12.55;93.00;101260.25;5011963;28;19925;-71
2023/04/15 09:11:16;;;;;;;;;;;;;;;12.54;88.52;101266.59;5009497;28;19967;-72
2023/04/15 09:13:42;;;;;;;;;;;;;;;12.93;87.08;101268.03;5009265;28;19932;-72
2023/04/15 09:16:08;;;;;;;;;;;;;;;12.73;81.74;101274.06;5010934;28;19921;-72
2023/04/15 09:18:33;;;;;;;;;;;;;;;12.79;81.13;101272.72;5009521;28;19940;-72
2023/04/15 09:21:05;;;;;;;;;;;;;;;12.69;84.54;101275.31;5011879;28;19955;-71
2023/04/15 09:23:31;;;;;;;;;;;;;;;12.86;83.01;101282.00;5013435;28;20027;-72
2023/04/15 09:25:56;;;;;;;;;;;;;;;12.73;80.57;101281.28;5012484;28;19934;-71
2023/04/15 09:28:27;;;;;;;;;;;;;;;12.83;83.50;101289.50;5012478;28;19921;-72
2023/04/15 09:30:59;;;;;;;;;;;;;;;12.81;77.78;101289.63;5011748;28;19925;-72
2023/04/15 09:33:25;;;;;;;;;;;;;;;12.94;76.20;101292.19;5013672;28;20335;-72
2023/04/15 09:36:01;;;;;;;;;;;;;;;13.22;78.70;101297.16;5013946;28;20501;-72
2023/04/15 09:38:26;;;;;;;;;;;;;;;13.36;77.26;101291.50;5011191;28;19920;-72
2023/04/15 09:40:51;;;;;;;;;;;;;;;13.45;75.59;101290.75;5009796;28;20418;-71
2023/04/15 09:43:17;;;;;;;;;;;;;;;13.34;76.41;101304.25;5009279;28;19964;-73
2023/04/15 09:45:46;;;;;;;;;;;;;;;13.67;73.79;101298.91;5012404;28;20412;-72
2023/04/15 09:48:15;;;;;;;;;;;;;;;13.52;74.73;101296.50;4996955;28;19944;-71
2023/04/15 09:50:41;;;;;;;;;;;;;;;13.68;73.15;101287.13;4115421;28;10000887;-71
2023/04/15 09:53:08;;;;;;;;;;;;;;;13.97;79.23;101297.31;4990750;28;20310;-71
2023/04/15 09:55:33;;;;;;;;;;;;;;;14.24;72.58;101302.16;4978806;28;19960;-71
2023/04/15 09:57:58;;;;;;;;;;;;;;;14.64;72.68;101300.53;4992648;28;20027;-72
2023/04/15 10:00:23;;;;;;;;;;;;;;;14.85;66.95;101311.34;4990130;28;20333;-71
2023/04/15 10:02:49;;;;;;;;;;;;;;;14.47;68.58;101318.22;4995271;28;19929;-72
2023/04/15 10:05:15;;;;;;;;;;;;;;;14.51;68.18;101315.16;4993917;28;20232;-72
2023/04/15 10:07:40;;;;;;;;;;;;;;;14.87;66.41;101314.78;4991584;28;19921;-71
2023/04/15 10:10:06;;;;;;;;;;;;;;;15.05;67.80;101304.16;5006912;28;19956;-72
2023/04/15 10:12:32;;;;;;;;;;;;;;;15.24;66.30;101318.72;4993553;28;20287;-71
2023/04/15 10:14:58;;;;;;;;;;;;;;;15.29;65.74;101322.72;4992515;28;20135;-72
2023/04/15 10:17:23;;;;;;;;;;;;;;;15.24;64.72;101322.28;4987085;28;20609;-71
2023/04/15 10:19:48;;;;;;;;;;;;;;;15.42;65.65;101316.22;4991764;28;19925;-71
2023/04/15 10:22:14;;;;;;;;;;;;;;;15.02;66.08;101328.78;4991740;28;20447;-71
2023/04/15 10:24:39;;;;;;;;;;;;;;;15.09;67.05;101312.84;4991622;28;20356;-71
2023/04/15 10:27:04;;;;;;;;;;;;;;;15.18;64.91;101324.69;4990396;28;19921;-71
2023/04/15 10:29:29;;;;;;;;;;;;;;;15.73;66.81;101325.06;4984671;28;19956;-72
2023/04/15 10:31:55;;;;;;;;;;;;;;;16.30;61.92;101321.66;4989470;28;19932;-72
2023/04/15 10:34:20;;;;;;;;;;;;;;;16.62;63.75;101331.28;4992362;28;21803;-71
2023/04/15 10:36:46;;;;;;;;;;;;;;;16.61;61.21;101336.81;5002769;28;19964;-72
2023/04/15 10:39:30;;;;;;;;;;;;;;;16.72;61.04;101336.66;4986962;28;20004;-72
2023/04/15 10:42:28;;;;;;;;;;;;;;;16.66;60.92;101339.13;4990407;28;19921;-72
2023/04/15 10:44:55;;;;;;;;;;;;;;;16.98;61.44;101343.28;4968577;28;19930;-72
2023/04/15 10:47:21;;;;;;;;;;;;;;;17.39;59.03;101346.53;5001602;28;19928;-72
2023/04/15 10:49:47;;;;;;;;;;;;;;;16.74;58.26;101350.06;4987966;28;19925;-72
2023/04/15 10:52:13;;;;;;;;;;;;;;;16.93;61.21;101349.13;4986772;28;20590;-70
2023/04/15 10:54:38;;;;;;;;;;;;;;;16.50;59.24;101351.41;4977812;28;20403;-72
2023/04/15 10:57:03;;;;;;;;;;;;;;;16.72;60.25;101352.06;5000782;28;19957;-71
2023/04/15 10:59:32;;;;;;;;;;;;;;;16.86;62.57;101356.16;4986794;28;19964;-71
2023/04/15 11:02:02;;;;;;;;;;;;;;;16.94;59.31;101361.69;4988128;28;19921;-71
2023/04/15 11:04:45;;;;;;;;;;;;;;;16.97;56.44;101363.28;4984326;28;19936;-71
2023/04/15 11:07:11;;;;;;;;;;;;;;;16.69;58.86;101363.19;4989924;28;19968;-73
2023/04/15 11:09:36;;;;;;;;;;;;;;;17.05;58.40;101358.84;4990174;28;20035;-71
2023/04/15 11:12:07;;;;;;;;;;;;;;;17.23;57.18;101361.59;5006777;28;19965;-71
2023/04/15 11:14:33;;;;;;;;;;;;;;;16.67;54.02;101365.22;4992789;28;20279;-71
2023/04/15 11:16:58;;;;;;;;;;;;;;;16.79;56.48;101364.03;4988265;28;20385;-71
2023/04/15 11:19:23;;;;;;;;;;;;;;;16.46;57.68;101369.81;4992782;28;20020;-71
2023/04/15 11:21:49;;;;;;;;;;;;;;;16.49;56.80;101355.13;4991502;28;19922;-70
2023/04/15 11:24:25;;;;;;;;;;;;;;;17.02;59.46;101372.69;4993661;28;20376;-70
2023/04/15 11:26:56;;;;;;;;;;;;;;;17.33;57.41;101369.69;4972024;28;19921;-71
2023/04/15 11:29:21;;;;;;;;;;;;;;;17.15;55.93;101372.34;5001028;28;20558;-72
2023/04/15 11:31:48;;;;;;;;;;;;;;;16.98;58.22;101371.28;4987321;28;19925;-71
2023/04/15 11:34:19;;;;;;;;;;;;;;;17.09;58.03;101365.66;4988694;28;19925;-70
2023/04/15 11:36:44;;;;;;;;;;;;;;;17.39;55.84;101369.06;4991090;28;19956;-72
2023/04/15 11:39:09;;;;;;;;;;;;;;;16.91;57.63;101368.28;4988435;28;19964;-71
2023/04/15 11:41:35;;;;;;;;;;;;;;;16.65;56.44;101365.34;5003999;28;19968;-72
2023/04/15 11:44:00;;;;;;;;;;;;;;;16.71;56.95;101372.03;5007337;28;19926;-71
2023/04/15 11:46:30;;;;;;;;;;;;;;;16.76;57.10;101377.88;4988148;28;19921;-71
2023/04/15 11:48:55;;;;;;;;;;;;;;;17.93;57.10;101376.44;5008483;28;20565;-71
2023/04/15 11:51:21;;;;;;;;;;;;;;;18.09;54.60;101366.78;4976876;28;19921;-71
2023/04/15 11:53:47;;;;;;;;;;;;;;;18.13;52.56;101368.16;4988611;28;19925;-72
2023/04/15 11:56:22;;;;;;;;;;;;;;;17.53;53.62;101373.13;5007597;28;19922;-67
2023/04/15 11:58:49;;;;;;;;;;;;;;;17.43;54.33;101374.19;4974941;28;20391;-71
2023/04/15 12:01:14;;;;;;;;;;;;;;;17.64;53.98;101371.22;4988701;28;19921;-71
2023/04/15 12:03:47;;;;;;;;;;;;;;;17.34;55.24;101365.97;5005481;28;19956;-71
2023/04/15 12:06:12;;;;;;;;;;;;;;;18.03;54.81;101378.25;5005980;28;20415;-72
2023/04/15 12:08:57;;;;;;;;;;;;;;;19.33;51.67;101373.00;4989264;28;19937;-71
2023/04/15 12:11:25;;;;;;;;;;;;;;;19.66;46.69;101374.97;4989669;28;19925;-71
2023/04/15 12:13:52;;;;;;;;;;;;;;;19.76;50.57;101370.22;4988053;28;19951;-71
2023/04/15 12:16:18;;;;;;;;;;;;;;;20.83;48.38;101377.56;4989077;28;19921;-71
2023/04/15 12:18:47;;;;;;;;;;;;;;;20.75;46.30;101383.03;5003954;28;20418;-71
2023/04/15 12:21:12;;;;;;;;;;;;;;;20.61;46.13;101390.91;4986168;28;19943;-71
2023/04/15 12:23:37;;;;;;;;;;;;;;;20.39;45.77;101392.47;4990008;28;19956;-72
2023/04/15 12:26:06;;;;;;;;;;;;;;;20.67;43.92;101394.78;4987588;28;20197;-72
2023/04/15 12:28:33;;;;;;;;;;;;;;;20.38;46.32;101394.31;4992456;28;19979;-71